Terminal Aerodrome Forecast
Issued by NWS

Home | Current Version | Previous Version | Text Only | Print | Product List | Glossary On
Versions: 1 2 3 4 5 6 7 8 9 10 11 12 13 14
000
FTUS42 KTBW 261509 AAB
TAFLAL
TAF AMD
KLAL 261509Z 2615/2712 14012G18KT P6SM SCT025
      TEMPO 2615/2617 BKN025
     FM261900 12012G17KT P6SM VCTS SCT040CB BKN250
     FM270300 09008KT P6SM SCT050 BKN250=

USA.gov is the U.S. government's official web portal to all federal, state and local government web resources and services.